sensor_id;sensor_type;location;lat;lon;timestamp;P1;durP1;ratioP1;P2;durP2;ratioP2
28311;SDS011;15572;48.810;9.148;2024-02-04T00:04:01;0.70;;;0.70;;
28311;SDS011;15572;48.810;9.148;2024-02-04T00:08:57;0.50;;;0.50;;
28311;SDS011;15572;48.810;9.148;2024-02-04T00:13:54;0.60;;;0.60;;
28311;SDS011;15572;48.810;9.148;2024-02-04T00:18:50;0.50;;;0.50;;
28311;SDS011;15572;48.810;9.148;2024-02-04T00:23:48;0.50;;;0.50;;
28311;SDS011;15572;48.810;9.148;2024-02-04T00:28:44;0.40;;;0.40;;
28311;SDS011;15572;48.810;9.148;2024-02-04T00:33:41;0.50;;;0.50;;
28311;SDS011;15572;48.810;9.148;2024-02-04T00:38:37;0.40;;;0.40;;
28311;SDS011;15572;48.810;9.148;2024-02-04T00:43:35;0.50;;;0.50;;
28311;SDS011;15572;48.810;9.148;2024-02-04T00:48:31;0.57;;;0.57;;
28311;SDS011;15572;48.810;9.148;2024-02-04T00:53:28;0.50;;;0.50;;
28311;SDS011;15572;48.810;9.148;2024-02-04T00:58:28;0.40;;;0.40;;
28311;SDS011;15572;48.810;9.148;2024-02-04T01:03:26;0.50;;;0.50;;
28311;SDS011;15572;48.810;9.148;2024-02-04T01:08:22;0.50;;;0.50;;
28311;SDS011;15572;48.810;9.148;2024-02-04T01:13:19;0.43;;;0.43;;
28311;SDS011;15572;48.810;9.148;2024-02-04T01:18:15;0.40;;;0.40;;
28311;SDS011;15572;48.810;9.148;2024-02-04T01:23:13;0.50;;;0.50;;
28311;SDS011;15572;48.810;9.148;2024-02-04T01:28:12;0.50;;;0.50;;
28311;SDS011;15572;48.810;9.148;2024-02-04T01:33:08;0.67;;;0.60;;
28311;SDS011;15572;48.810;9.148;2024-02-04T01:38:05;0.50;;;0.50;;
28311;SDS011;15572;48.810;9.148;2024-02-04T01:43:03;0.40;;;0.40;;
28311;SDS011;15572;48.810;9.148;2024-02-04T01:48:00;0.50;;;0.50;;
28311;SDS011;15572;48.810;9.148;2024-02-04T01:52:57;0.50;;;0.50;;
28311;SDS011;15572;48.810;9.148;2024-02-04T01:57:54;0.40;;;0.40;;
28311;SDS011;15572;48.810;9.148;2024-02-04T02:02:52;0.40;;;0.40;;
28311;SDS011;15572;48.810;9.148;2024-02-04T02:07:49;0.50;;;0.50;;
28311;SDS011;15572;48.810;9.148;2024-02-04T02:12:47;1.40;;;0.60;;
28311;SDS011;15572;48.810;9.148;2024-02-04T02:17:48;0.63;;;0.50;;
28311;SDS011;15572;48.810;9.148;2024-02-04T02:22:53;0.40;;;0.40;;
28311;SDS011;15572;48.810;9.148;2024-02-04T02:27:57;0.33;;;0.33;;
28311;SDS011;15572;48.810;9.148;2024-02-04T02:32:54;0.40;;;0.40;;
28311;SDS011;15572;48.810;9.148;2024-02-04T02:37:52;0.67;;;0.50;;
28311;SDS011;15572;48.810;9.148;2024-02-04T02:42:53;0.40;;;0.40;;
28311;SDS011;15572;48.810;9.148;2024-02-04T02:47:52;0.40;;;0.40;;
28311;SDS011;15572;48.810;9.148;2024-02-04T02:52:50;0.50;;;0.50;;
28311;SDS011;15572;48.810;9.148;2024-02-04T02:57:46;0.97;;;0.40;;
28311;SDS011;15572;48.810;9.148;2024-02-04T03:02:43;0.47;;;0.47;;
28311;SDS011;15572;48.810;9.148;2024-02-04T03:07:40;0.40;;;0.30;;
28311;SDS011;15572;48.810;9.148;2024-02-04T03:12:37;0.30;;;0.30;;
28311;SDS011;15572;48.810;9.148;2024-02-04T03:17:33;0.40;;;0.40;;
28311;SDS011;15572;48.810;9.148;2024-02-04T03:22:30;0.30;;;0.30;;
28311;SDS011;15572;48.810;9.148;2024-02-04T03:27:27;0.50;;;0.50;;
28311;SDS011;15572;48.810;9.148;2024-02-04T03:32:24;0.30;;;0.30;;
28311;SDS011;15572;48.810;9.148;2024-02-04T03:37:20;0.40;;;0.40;;
28311;SDS011;15572;48.810;9.148;2024-02-04T03:42:16;0.40;;;0.40;;
28311;SDS011;15572;48.810;9.148;2024-02-04T03:47:16;0.37;;;0.37;;
28311;SDS011;15572;48.810;9.148;2024-02-04T03:52:13;0.40;;;0.40;;
28311;SDS011;15572;48.810;9.148;2024-02-04T03:57:09;1.40;;;0.40;;
28311;SDS011;15572;48.810;9.148;2024-02-04T04:02:06;1.03;;;0.40;;
28311;SDS011;15572;48.810;9.148;2024-02-04T04:07:04;0.30;;;0.30;;
28311;SDS011;15572;48.810;9.148;2024-02-04T04:12:00;0.30;;;0.30;;
28311;SDS011;15572;48.810;9.148;2024-02-04T04:16:57;0.30;;;0.30;;
28311;SDS011;15572;48.810;9.148;2024-02-04T04:21:53;0.40;;;0.40;;
28311;SDS011;15572;48.810;9.148;2024-02-04T04:26:51;0.37;;;0.37;;
28311;SDS011;15572;48.810;9.148;2024-02-04T04:31:47;0.40;;;0.40;;
28311;SDS011;15572;48.810;9.148;2024-02-04T04:36:44;0.40;;;0.40;;
28311;SDS011;15572;48.810;9.148;2024-02-04T04:41:41;0.30;;;0.30;;
28311;SDS011;15572;48.810;9.148;2024-02-04T04:46:41;0.40;;;0.40;;
28311;SDS011;15572;48.810;9.148;2024-02-04T04:51:37;0.40;;;0.40;;
28311;SDS011;15572;48.810;9.148;2024-02-04T04:56:37;1.10;;;0.40;;
28311;SDS011;15572;48.810;9.148;2024-02-04T05:01:34;0.40;;;0.40;;
28311;SDS011;15572;48.810;9.148;2024-02-04T05:06:32;0.87;;;0.50;;
28311;SDS011;15572;48.810;9.148;2024-02-04T05:11:28;0.40;;;0.40;;
28311;SDS011;15572;48.810;9.148;2024-02-04T05:16:24;0.30;;;0.30;;
28311;SDS011;15572;48.810;9.148;2024-02-04T05:21:21;0.40;;;0.40;;
28311;SDS011;15572;48.810;9.148;2024-02-04T05:26:19;0.40;;;0.40;;
28311;SDS011;15572;48.810;9.148;2024-02-04T05:31:15;0.40;;;0.40;;
28311;SDS011;15572;48.810;9.148;2024-02-04T05:36:11;0.33;;;0.33;;
28311;SDS011;15572;48.810;9.148;2024-02-04T05:41:08;0.40;;;0.40;;
28311;SDS011;15572;48.810;9.148;2024-02-04T05:46:05;0.37;;;0.37;;
28311;SDS011;15572;48.810;9.148;2024-02-04T05:51:02;0.30;;;0.30;;
28311;SDS011;15572;48.810;9.148;2024-02-04T05:55:58;0.30;;;0.30;;
28311;SDS011;15572;48.810;9.148;2024-02-04T06:00:55;0.30;;;0.30;;
28311;SDS011;15572;48.810;9.148;2024-02-04T06:05:53;0.40;;;0.40;;
28311;SDS011;15572;48.810;9.148;2024-02-04T06:10:49;0.30;;;0.30;;
28311;SDS011;15572;48.810;9.148;2024-02-04T06:15:45;0.30;;;0.30;;
28311;SDS011;15572;48.810;9.148;2024-02-04T06:20:42;0.40;;;0.40;;
28311;SDS011;15572;48.810;9.148;2024-02-04T06:25:39;0.40;;;0.40;;
28311;SDS011;15572;48.810;9.148;2024-02-04T06:30:36;0.30;;;0.30;;
28311;SDS011;15572;48.810;9.148;2024-02-04T06:35:32;0.40;;;0.40;;
28311;SDS011;15572;48.810;9.148;2024-02-04T06:40:29;0.30;;;0.30;;
28311;SDS011;15572;48.810;9.148;2024-02-04T06:45:26;0.30;;;0.30;;
28311;SDS011;15572;48.810;9.148;2024-02-04T06:50:23;0.40;;;0.40;;
28311;SDS011;15572;48.810;9.148;2024-02-04T06:55:19;0.30;;;0.30;;
28311;SDS011;15572;48.810;9.148;2024-02-04T07:00:16;0.30;;;0.30;;
28311;SDS011;15572;48.810;9.148;2024-02-04T07:05:13;1.47;;;0.40;;
28311;SDS011;15572;48.810;9.148;2024-02-04T07:10:10;0.30;;;0.30;;
28311;SDS011;15572;48.810;9.148;2024-02-04T07:15:07;0.40;;;0.30;;
28311;SDS011;15572;48.810;9.148;2024-02-04T07:20:04;0.40;;;0.40;;
28311;SDS011;15572;48.810;9.148;2024-02-04T07:25:03;0.40;;;0.40;;
28311;SDS011;15572;48.810;9.148;2024-02-04T07:30:00;0.40;;;0.40;;
28311;SDS011;15572;48.810;9.148;2024-02-04T07:34:58;0.30;;;0.30;;
28311;SDS011;15572;48.810;9.148;2024-02-04T07:39:54;0.30;;;0.30;;
28311;SDS011;15572;48.810;9.148;2024-02-04T07:44:52;0.30;;;0.30;;
28311;SDS011;15572;48.810;9.148;2024-02-04T07:49:49;0.43;;;0.43;;
28311;SDS011;15572;48.810;9.148;2024-02-04T07:54:46;0.40;;;0.40;;
28311;SDS011;15572;48.810;9.148;2024-02-04T07:59:42;0.40;;;0.40;;
28311;SDS011;15572;48.810;9.148;2024-02-04T08:04:41;0.40;;;0.40;;
28311;SDS011;15572;48.810;9.148;2024-02-04T08:09:37;0.40;;;0.40;;
28311;SDS011;15572;48.810;9.148;2024-02-04T08:14:34;0.33;;;0.33;;
28311;SDS011;15572;48.810;9.148;2024-02-04T08:19:30;0.40;;;0.40;;
28311;SDS011;15572;48.810;9.148;2024-02-04T08:24:28;0.30;;;0.30;;
28311;SDS011;15572;48.810;9.148;2024-02-04T08:29:27;0.40;;;0.40;;
28311;SDS011;15572;48.810;9.148;2024-02-04T08:34:23;1.17;;;0.50;;
28311;SDS011;15572;48.810;9.148;2024-02-04T08:39:20;0.40;;;0.40;;
28311;SDS011;15572;48.810;9.148;2024-02-04T08:44:19;0.40;;;0.40;;
28311;SDS011;15572;48.810;9.148;2024-02-04T08:49:15;0.40;;;0.40;;
28311;SDS011;15572;48.810;9.148;2024-02-04T08:54:11;0.30;;;0.30;;
28311;SDS011;15572;48.810;9.148;2024-02-04T08:59:08;0.40;;;0.40;;
28311;SDS011;15572;48.810;9.148;2024-02-04T09:04:06;0.40;;;0.40;;
28311;SDS011;15572;48.810;9.148;2024-02-04T09:09:02;0.43;;;0.43;;
28311;SDS011;15572;48.810;9.148;2024-02-04T09:13:59;0.40;;;0.40;;
28311;SDS011;15572;48.810;9.148;2024-02-04T09:18:55;0.40;;;0.40;;
28311;SDS011;15572;48.810;9.148;2024-02-04T09:23:53;0.30;;;0.30;;
28311;SDS011;15572;48.810;9.148;2024-02-04T09:28:49;0.40;;;0.40;;
28311;SDS011;15572;48.810;9.148;2024-02-04T09:33:45;0.63;;;0.47;;
28311;SDS011;15572;48.810;9.148;2024-02-04T09:38:42;0.30;;;0.30;;
28311;SDS011;15572;48.810;9.148;2024-02-04T09:43:39;0.40;;;0.40;;
28311;SDS011;15572;48.810;9.148;2024-02-04T09:48:36;0.30;;;0.30;;
28311;SDS011;15572;48.810;9.148;2024-02-04T09:53:35;0.20;;;0.20;;
28311;SDS011;15572;48.810;9.148;2024-02-04T09:58:33;0.43;;;0.30;;
28311;SDS011;15572;48.810;9.148;2024-02-04T10:03:31;0.50;;;0.50;;
28311;SDS011;15572;48.810;9.148;2024-02-04T10:08:28;0.30;;;0.30;;
28311;SDS011;15572;48.810;9.148;2024-02-04T10:13:24;0.30;;;0.30;;
28311;SDS011;15572;48.810;9.148;2024-02-04T10:18:21;0.40;;;0.30;;
28311;SDS011;15572;48.810;9.148;2024-02-04T10:23:19;0.30;;;0.30;;
28311;SDS011;15572;48.810;9.148;2024-02-04T10:28:15;0.40;;;0.40;;
28311;SDS011;15572;48.810;9.148;2024-02-04T10:33:12;0.20;;;0.20;;
28311;SDS011;15572;48.810;9.148;2024-02-04T10:38:08;0.30;;;0.30;;
28311;SDS011;15572;48.810;9.148;2024-02-04T10:43:07;2.10;;;0.50;;
28311;SDS011;15572;48.810;9.148;2024-02-04T10:48:05;0.20;;;0.20;;
28311;SDS011;15572;48.810;9.148;2024-02-04T10:53:03;0.40;;;0.37;;
28311;SDS011;15572;48.810;9.148;2024-02-04T10:58:02;0.30;;;0.30;;
28311;SDS011;15572;48.810;9.148;2024-02-04T11:03:00;0.13;;;0.13;;
28311;SDS011;15572;48.810;9.148;2024-02-04T11:08:00;0.40;;;0.40;;
28311;SDS011;15572;48.810;9.148;2024-02-04T11:12:56;0.30;;;0.30;;
28311;SDS011;15572;48.810;9.148;2024-02-04T11:18:09;0.30;;;0.30;;
28311;SDS011;15572;48.810;9.148;2024-02-04T11:23:24;0.40;;;0.40;;
28311;SDS011;15572;48.810;9.148;2024-02-04T11:28:37;1.07;;;0.40;;
28311;SDS011;15572;48.810;9.148;2024-02-04T11:33:35;0.30;;;0.30;;
28311;SDS011;15572;48.810;9.148;2024-02-04T11:38:33;0.43;;;0.30;;
28311;SDS011;15572;48.810;9.148;2024-02-04T11:43:32;0.40;;;0.40;;
28311;SDS011;15572;48.810;9.148;2024-02-04T11:48:29;0.40;;;0.40;;
28311;SDS011;15572;48.810;9.148;2024-02-04T11:53:28;0.40;;;0.40;;
28311;SDS011;15572;48.810;9.148;2024-02-04T11:58:27;0.40;;;0.40;;
28311;SDS011;15572;48.810;9.148;2024-02-04T12:03:28;0.30;;;0.30;;
28311;SDS011;15572;48.810;9.148;2024-02-04T12:08:25;0.30;;;0.30;;
28311;SDS011;15572;48.810;9.148;2024-02-04T12:13:24;0.33;;;0.33;;
28311;SDS011;15572;48.810;9.148;2024-02-04T12:18:21;0.67;;;0.30;;
28311;SDS011;15572;48.810;9.148;2024-02-04T12:23:17;0.40;;;0.30;;
28311;SDS011;15572;48.810;9.148;2024-02-04T12:28:17;0.40;;;0.40;;
28311;SDS011;15572;48.810;9.148;2024-02-04T12:33:17;0.30;;;0.30;;
28311;SDS011;15572;48.810;9.148;2024-02-04T12:38:16;1.00;;;0.40;;
28311;SDS011;15572;48.810;9.148;2024-02-04T12:43:13;0.60;;;0.47;;
28311;SDS011;15572;48.810;9.148;2024-02-04T12:48:13;1.07;;;0.50;;
28311;SDS011;15572;48.810;9.148;2024-02-04T12:53:11;0.43;;;0.43;;
28311;SDS011;15572;48.810;9.148;2024-02-04T12:58:09;0.70;;;0.50;;
28311;SDS011;15572;48.810;9.148;2024-02-04T13:03:07;0.30;;;0.30;;
28311;SDS011;15572;48.810;9.148;2024-02-04T13:08:06;0.40;;;0.40;;
28311;SDS011;15572;48.810;9.148;2024-02-04T13:13:03;0.40;;;0.40;;
28311;SDS011;15572;48.810;9.148;2024-02-04T13:18:02;1.03;;;0.30;;
28311;SDS011;15572;48.810;9.148;2024-02-04T13:22:59;0.40;;;0.40;;
28311;SDS011;15572;48.810;9.148;2024-02-04T13:28:00;0.33;;;0.33;;
28311;SDS011;15572;48.810;9.148;2024-02-04T13:32:57;0.40;;;0.40;;
28311;SDS011;15572;48.810;9.148;2024-02-04T13:37:53;0.50;;;0.30;;
28311;SDS011;15572;48.810;9.148;2024-02-04T13:42:50;0.40;;;0.40;;
28311;SDS011;15572;48.810;9.148;2024-02-04T13:47:48;0.40;;;0.40;;
28311;SDS011;15572;48.810;9.148;2024-02-04T13:52:44;0.40;;;0.40;;
28311;SDS011;15572;48.810;9.148;2024-02-04T13:57:41;0.40;;;0.40;;
28311;SDS011;15572;48.810;9.148;2024-02-04T14:02:38;0.47;;;0.40;;
28311;SDS011;15572;48.810;9.148;2024-02-04T14:07:36;0.47;;;0.47;;
28311;SDS011;15572;48.810;9.148;2024-02-04T14:12:33;0.40;;;0.40;;
28311;SDS011;15572;48.810;9.148;2024-02-04T14:17:29;0.70;;;0.43;;
28311;SDS011;15572;48.810;9.148;2024-02-04T14:22:26;0.30;;;0.30;;
28311;SDS011;15572;48.810;9.148;2024-02-04T14:27:24;0.40;;;0.40;;
28311;SDS011;15572;48.810;9.148;2024-02-04T14:32:20;0.37;;;0.37;;
28311;SDS011;15572;48.810;9.148;2024-02-04T14:37:17;0.53;;;0.47;;
28311;SDS011;15572;48.810;9.148;2024-02-04T14:42:13;2.20;;;0.53;;
28311;SDS011;15572;48.810;9.148;2024-02-04T14:47:11;0.70;;;0.70;;
28311;SDS011;15572;48.810;9.148;2024-02-04T14:52:07;0.60;;;0.60;;
28311;SDS011;15572;48.810;9.148;2024-02-04T14:57:05;0.53;;;0.53;;
28311;SDS011;15572;48.810;9.148;2024-02-04T15:02:01;1.97;;;0.70;;
28311;SDS011;15572;48.810;9.148;2024-02-04T15:07:00;2.10;;;0.60;;
28311;SDS011;15572;48.810;9.148;2024-02-04T15:11:58;0.50;;;0.50;;
28311;SDS011;15572;48.810;9.148;2024-02-04T15:16:56;0.53;;;0.53;;
28311;SDS011;15572;48.810;9.148;2024-02-04T15:21:53;0.70;;;0.70;;
28311;SDS011;15572;48.810;9.148;2024-02-04T15:26:51;0.60;;;0.60;;
28311;SDS011;15572;48.810;9.148;2024-02-04T15:31:48;1.43;;;0.50;;
28311;SDS011;15572;48.810;9.148;2024-02-04T15:36:45;0.83;;;0.60;;
28311;SDS011;15572;48.810;9.148;2024-02-04T15:41:42;0.50;;;0.50;;
28311;SDS011;15572;48.810;9.148;2024-02-04T15:46:40;0.60;;;0.50;;
28311;SDS011;15572;48.810;9.148;2024-02-04T15:51:38;0.63;;;0.60;;
28311;SDS011;15572;48.810;9.148;2024-02-04T15:56:34;1.13;;;0.70;;
28311;SDS011;15572;48.810;9.148;2024-02-04T16:01:37;0.60;;;0.60;;
28311;SDS011;15572;48.810;9.148;2024-02-04T16:06:37;0.63;;;0.63;;
28311;SDS011;15572;48.810;9.148;2024-02-04T16:11:39;0.60;;;0.60;;
28311;SDS011;15572;48.810;9.148;2024-02-04T16:16:43;0.73;;;0.70;;
28311;SDS011;15572;48.810;9.148;2024-02-04T16:21:42;0.60;;;0.60;;
28311;SDS011;15572;48.810;9.148;2024-02-04T16:26:39;2.47;;;0.60;;
28311;SDS011;15572;48.810;9.148;2024-02-04T16:31:35;0.60;;;0.60;;
28311;SDS011;15572;48.810;9.148;2024-02-04T16:36:32;1.33;;;0.80;;
28311;SDS011;15572;48.810;9.148;2024-02-04T16:41:30;0.60;;;0.60;;
28311;SDS011;15572;48.810;9.148;2024-02-04T16:46:26;0.60;;;0.60;;
28311;SDS011;15572;48.810;9.148;2024-02-04T16:51:23;1.10;;;0.80;;
28311;SDS011;15572;48.810;9.148;2024-02-04T16:56:19;0.50;;;0.50;;
28311;SDS011;15572;48.810;9.148;2024-02-04T17:01:19;0.80;;;0.80;;
28311;SDS011;15572;48.810;9.148;2024-02-04T17:06:16;0.70;;;0.70;;
28311;SDS011;15572;48.810;9.148;2024-02-04T17:11:13;1.87;;;0.80;;
28311;SDS011;15572;48.810;9.148;2024-02-04T17:16:12;0.90;;;0.90;;
28311;SDS011;15572;48.810;9.148;2024-02-04T17:21:14;1.33;;;0.70;;
28311;SDS011;15572;48.810;9.148;2024-02-04T17:26:14;0.60;;;0.50;;
28311;SDS011;15572;48.810;9.148;2024-02-04T17:31:19;0.80;;;0.80;;
28311;SDS011;15572;48.810;9.148;2024-02-04T17:36:18;1.13;;;1.00;;
28311;SDS011;15572;48.810;9.148;2024-02-04T17:41:15;0.93;;;0.83;;
28311;SDS011;15572;48.810;9.148;2024-02-04T17:46:13;1.23;;;1.00;;
28311;SDS011;15572;48.810;9.148;2024-02-04T17:51:09;0.93;;;0.90;;
28311;SDS011;15572;48.810;9.148;2024-02-04T17:56:07;1.13;;;0.90;;
28311;SDS011;15572;48.810;9.148;2024-02-04T18:01:04;1.67;;;1.10;;
28311;SDS011;15572;48.810;9.148;2024-02-04T18:06:00;1.00;;;0.90;;
28311;SDS011;15572;48.810;9.148;2024-02-04T18:10:59;1.80;;;0.83;;
28311;SDS011;15572;48.810;9.148;2024-02-04T18:15:56;1.40;;;1.20;;
28311;SDS011;15572;48.810;9.148;2024-02-04T18:20:53;1.37;;;1.10;;
28311;SDS011;15572;48.810;9.148;2024-02-04T18:25:49;2.07;;;1.03;;
28311;SDS011;15572;48.810;9.148;2024-02-04T18:30:46;0.90;;;0.90;;
28311;SDS011;15572;48.810;9.148;2024-02-04T18:35:46;1.10;;;1.00;;
28311;SDS011;15572;48.810;9.148;2024-02-04T18:40:42;1.30;;;1.10;;
28311;SDS011;15572;48.810;9.148;2024-02-04T18:45:39;1.47;;;1.17;;
28311;SDS011;15572;48.810;9.148;2024-02-04T18:50:35;1.83;;;1.33;;
28311;SDS011;15572;48.810;9.148;2024-02-04T18:55:33;0.93;;;0.70;;
28311;SDS011;15572;48.810;9.148;2024-02-04T19:00:32;0.90;;;0.90;;
28311;SDS011;15572;48.810;9.148;2024-02-04T19:05:29;0.93;;;0.80;;
28311;SDS011;15572;48.810;9.148;2024-02-04T19:10:25;1.83;;;1.50;;
28311;SDS011;15572;48.810;9.148;2024-02-04T19:15:23;1.43;;;0.93;;
28311;SDS011;15572;48.810;9.148;2024-02-04T19:20:19;1.27;;;1.00;;
28311;SDS011;15572;48.810;9.148;2024-02-04T19:25:16;1.00;;;0.90;;
28311;SDS011;15572;48.810;9.148;2024-02-04T19:30:14;1.63;;;0.97;;
28311;SDS011;15572;48.810;9.148;2024-02-04T19:35:13;1.13;;;1.00;;
28311;SDS011;15572;48.810;9.148;2024-02-04T19:40:11;1.33;;;1.00;;
28311;SDS011;15572;48.810;9.148;2024-02-04T19:45:10;1.40;;;1.10;;
28311;SDS011;15572;48.810;9.148;2024-02-04T19:50:07;0.90;;;0.90;;
28311;SDS011;15572;48.810;9.148;2024-02-04T19:55:07;0.82;;;0.82;;
28311;SDS011;15572;48.810;9.148;2024-02-04T20:00:04;0.70;;;0.70;;
28311;SDS011;15572;48.810;9.148;2024-02-04T20:05:01;0.80;;;0.80;;
28311;SDS011;15572;48.810;9.148;2024-02-04T20:09:59;0.90;;;0.70;;
28311;SDS011;15572;48.810;9.148;2024-02-04T20:14:57;1.00;;;1.00;;
28311;SDS011;15572;48.810;9.148;2024-02-04T20:19:53;1.20;;;0.90;;
28311;SDS011;15572;48.810;9.148;2024-02-04T20:24:52;1.13;;;0.70;;
28311;SDS011;15572;48.810;9.148;2024-02-04T20:29:49;0.70;;;0.70;;
28311;SDS011;15572;48.810;9.148;2024-02-04T20:34:47;0.90;;;0.60;;
28311;SDS011;15572;48.810;9.148;2024-02-04T20:39:43;1.20;;;0.60;;
28311;SDS011;15572;48.810;9.148;2024-02-04T20:44:40;1.07;;;0.70;;
28311;SDS011;15572;48.810;9.148;2024-02-04T20:49:37;0.80;;;0.70;;
28311;SDS011;15572;48.810;9.148;2024-02-04T20:54:35;0.60;;;0.60;;
28311;SDS011;15572;48.810;9.148;2024-02-04T20:59:31;0.80;;;0.70;;
28311;SDS011;15572;48.810;9.148;2024-02-04T21:04:28;0.70;;;0.70;;
28311;SDS011;15572;48.810;9.148;2024-02-04T21:09:24;1.07;;;0.90;;
28311;SDS011;15572;48.810;9.148;2024-02-04T21:14:22;0.73;;;0.73;;
28311;SDS011;15572;48.810;9.148;2024-02-04T21:19:18;3.80;;;2.63;;
28311;SDS011;15572;48.810;9.148;2024-02-04T21:24:15;4.23;;;3.10;;
28311;SDS011;15572;48.810;9.148;2024-02-04T21:29:13;2.13;;;1.90;;
28311;SDS011;15572;48.810;9.148;2024-02-04T21:34:11;2.77;;;2.00;;
28311;SDS011;15572;48.810;9.148;2024-02-04T21:39:09;1.13;;;1.03;;
28311;SDS011;15572;48.810;9.148;2024-02-04T21:44:05;1.53;;;1.30;;
28311;SDS011;15572;48.810;9.148;2024-02-04T21:49:02;3.17;;;1.40;;
28311;SDS011;15572;48.810;9.148;2024-02-04T21:54:00;2.33;;;1.90;;
28311;SDS011;15572;48.810;9.148;2024-02-04T21:58:57;5.07;;;3.50;;
28311;SDS011;15572;48.810;9.148;2024-02-04T22:03:53;13.40;;;6.90;;
28311;SDS011;15572;48.810;9.148;2024-02-04T22:08:50;7.90;;;4.57;;
28311;SDS011;15572;48.810;9.148;2024-02-04T22:13:48;8.70;;;4.67;;
28311;SDS011;15572;48.810;9.148;2024-02-04T22:18:44;7.70;;;4.90;;
28311;SDS011;15572;48.810;9.148;2024-02-04T22:23:40;3.73;;;2.43;;
28311;SDS011;15572;48.810;9.148;2024-02-04T22:28:38;3.47;;;2.47;;
28311;SDS011;15572;48.810;9.148;2024-02-04T22:33:36;3.47;;;2.60;;
28311;SDS011;15572;48.810;9.148;2024-02-04T22:38:32;4.70;;;3.50;;
28311;SDS011;15572;48.810;9.148;2024-02-04T22:43:29;5.57;;;4.10;;
28311;SDS011;15572;48.810;9.148;2024-02-04T22:48:25;4.40;;;3.67;;
28311;SDS011;15572;48.810;9.148;2024-02-04T22:53:23;6.43;;;4.33;;
28311;SDS011;15572;48.810;9.148;2024-02-04T22:58:20;5.57;;;3.83;;
28311;SDS011;15572;48.810;9.148;2024-02-04T23:03:16;19.63;;;10.73;;
28311;SDS011;15572;48.810;9.148;2024-02-04T23:08:13;9.13;;;6.27;;
28311;SDS011;15572;48.810;9.148;2024-02-04T23:13:11;3.90;;;2.83;;
28311;SDS011;15572;48.810;9.148;2024-02-04T23:18:07;2.20;;;1.90;;
28311;SDS011;15572;48.810;9.148;2024-02-04T23:23:03;9.43;;;3.80;;
28311;SDS011;15572;48.810;9.148;2024-02-04T23:28:00;6.37;;;2.40;;
28311;SDS011;15572;48.810;9.148;2024-02-04T23:32:58;24.13;;;12.70;;
28311;SDS011;15572;48.810;9.148;2024-02-04T23:37:54;8.83;;;5.50;;
28311;SDS011;15572;48.810;9.148;2024-02-04T23:42:51;8.53;;;4.40;;
28311;SDS011;15572;48.810;9.148;2024-02-04T23:47:47;5.13;;;3.60;;
28311;SDS011;15572;48.810;9.148;2024-02-04T23:52:45;8.13;;;4.23;;
28311;SDS011;15572;48.810;9.148;2024-02-04T23:57:42;1.23;;;1.10;;
